Impacts METAR Board INFO
IDs:

KSFO - San Francisco Intl, CA, US

Updated at: 2020 UTC 18 Dec 2017
Potential Impact None Slight Moderate High
Time18/08Z 18/09Z 18/10Z 18/11Z 18/12Z 18/13Z 18/14Z 18/15Z 18/16Z 18/17Z 18/18Z 18/19Z 18/20Z
VIS10 10 10 10 10 10 10 10 10 10 10 10 10
CIG-- -- -- -- -- -- -- -- -- -- -- -- --
CoverCLRCLRCLRCLRCLRCLRCLRFEWFEWFEWFEWFEWFEW
FltCatVFRVFRVFRVFRVFRVFRVFRVFRVFRVFRVFRVFRVFR
WX--------------------------
WDir2000180180000013000010
WSpd3 0 3 3 0 0 0 0 4 0 0 0 3
WGst-- -- -- -- -- -- -- -- -- -- -- -- --
Raw hourly METARs
KSFO 180756Z 20003KT 10SM CLR 09/01 A3012 RMK AO2 SLP199 T00890011 401720089
KSFO 180856Z 00000KT 10SM CLR 09/01 A3013 RMK AO2 SLP202 T00940011 51011
KSFO 180956Z 18003KT 10SM CLR 08/02 A3014 RMK AO2 SLP206 T00830022
KSFO 181056Z 18003KT 10SM CLR 08/03 A3015 RMK AO2 SLP209 T00830033
KSFO 181156Z 00000KT 10SM CLR 08/02 A3016 RMK AO2 SLP213 T00780022 10128 20072 53010
KSFO 181256Z 00000KT 10SM CLR 08/03 A3016 RMK AO2 SLP214 T00780028
KSFO 181356Z 00000KT 10SM CLR 07/03 A3017 RMK AO2 SLP217 T00720028
KSFO 181456Z 00000KT 10SM FEW200 07/03 A3020 RMK AO2 SLP225 T00720033 53012
KSFO 181556Z 13004KT 10SM FEW200 08/04 A3020 RMK AO2 SLP225 T00830044
KSFO 181656Z 00000KT 10SM FEW200 10/05 A3022 RMK AO2 SLP233 T01000050
KSFO 181756Z 00000KT 10SM FEW200 12/04 A3023 RMK AO2 SLP238 T01170044 10117 20067 53013
KSFO 181856Z 00000KT 10SM FEW200 12/03 A3022 RMK AO2 SLP233 T01220028
KSFO 181956Z 01003KT 10SM FEW200 13/03 A3020 RMK AO2 SLP225 T01280028